Utrecht, Netherlands
Current Conditions -  °F | °C
As of 6:55 AM on Monday 29 Dec 2014 (Local Time) from EHAM Reporting Station
Few Clouds Few Clouds  
Wind Chill: 34°   Ceiling: Unl
Heat Index: 39°   Visibility: 6mi
Dew Point: 34°   Wind: 8mph
Humidity: 81%   Direction: 330°NNW
Pressure: 30.45"   Gusts: NA
Location:  52.08°N, 5.08°E
Report Text: EHAM 290555Z 33007KT 9999 FEW030 04/01 Q1031 TEMPO 7000 -SHRASCT025CB
Loading
Personal Weather Stations






























Interactive Weather Map New forecast layout! Learn more

10-Day Weather Forecast

Advertisements
Track Severe Weather on mobile